aviador You're here:

OMFJ Decoded Metar

FUJEIRAH in UNITED ARAB EMIRATES
Report Time2017-07-24 16:00:00
UTC Time2017-07-24 16:46:56
Flight Rules vfr VFR
Wind140° at 06 kt
W.Decomp.*RWY 11: 5.2 kt HW 3.0 kt RCW
W.Rank140° ranks 16
Current wind is above 140° avg. (3.9)
Visibility8000 m
Phenomena:N/A
Clouds:N/A
Expected CloudBase > 4,400 ft AGL from Temp-Dew spread
CeilingNone
Temp36°C (ISA +21)
Dew Point25°C (53% RH)
Heat Index44.5°C
QNH0996 hPa
Density Alt3,478 ft
Elevation92 ft
Report Wrong Elevation
Raw Report
OMFJ 241600Z 14006KT 8000 NSC 36/25 Q0996 RMK A2943=

Extra information for OMFJ:More info

Metar Taf Metar & Taf Last 4 Metars F.Rules Stats Wind Profile Meteogram Temp Stats Airport Information Weather charts Add Link Nearby VenuesMetar ALERT Operation Metar Decoded Social comments